New Castle, NH (03854)

5:43 AM EST on February 07, 2016 (GMT -0500)
KPV | | Change Station
CLOSE
Current Station
Personal Weather Station
Location: Kittery Point, ME
Elevation: 40 ft
Nearby Weather Stations

Elev 40 ft 43.08 °N, 70.71 °W | Updated 26 seconds ago

Mostly Cloudy
Mostly Cloudy
27.5 °F
Feels Like 28 °F
N
0.4
Wind Variable Wind from SW
Gusts 2.7 mph

Today
High -- | Low -- °F
--% Chance of Precip.
Yesterday
High -- | Low -- °F
Precip. -- in
Pressure 30.14 in
Visibility 10.0 miles
Clouds Few 25000 ft
Windchill 28 °F
Dew Point 24 °F
Humidity 86%
Rainfall Not available.
Snow Depth Not available.
6:51 AM 5:02 PM
Waning Crescent, 2% visible
METAR KPSM 070958Z VRB03KT 10SM FEW250 M03/M06 A3012 RMK AO2A SLP204 T10261064
Pressure 30.14 in
Visibility 10.0 miles
Clouds Few 25000 ft
Windchill 28 °F
Dew Point 24 °F
Humidity 86%
Rainfall Not available.
Snow Depth Not available.
6:51 AM 5:02 PM
Waning Crescent, 2% visible
METAR KPSM 070958Z VRB03KT 10SM FEW250 M03/M06 A3012 RMK AO2A SLP204 T10261064

10-Day Weather Forecast

Almanac

Astronomy

Feb. 07, 2016 Rise Set
Actual Time
Civil Twilight
Nautical Twilight
Astronomical Twilight
Moon
Length of Visible Light
Length of Day
Tomorrow will be .
, % of the Moon is Illuminated

Today's Extremes

State Highs State Lows

Community

WunderPhotos

Upload Photos

1,891,171 photos uploaded!

WunderBlog® & News

Nearby

Air Quality

  Air Quality AQ Index Pollutant
Not available.

Snow Depth

Station Depth Elevation

Earthquake Activity

City Distance Mag. Time & Date
Minimum magnitude displayed is 2.5.

Coastal Water Temperatures

Place Temperature

Stations

Nearby Weather Stations

Station Location Temp. Windchill Dew Point Humidity Wind Precip. Elev Updated Type
                   

Watches & Warnings

There are currently no watches in effect.